Time;durP1;ratioP1;P1;durP2;ratioP2;P2;SDS_P1;SDS_P2;PMS_P1;PMS_P2;Temp;Humidity;BMP_temperature;BMP_pressure;BME280_temperature;BME280_humidity;BME280_pressure;Samples;Min_cycle;Max_cycle;Signal;HPM_P1;HPM_P2
2021/06/30 00:00:40;;;;;;;33.33;22.13;;;;;;;;;;5072582;28;20103;-47
2021/06/30 00:03:06;;;;;;;35.30;20.73;;;;;;;;;;5072645;28;20025;-47
2021/06/30 00:05:32;;;;;;;48.20;27.17;;;;;;;;;;5072765;28;20096;-46
2021/06/30 00:07:58;;;;;;;35.83;20.17;;;;;;;;;;5076280;28;20063;-43
2021/06/30 00:10:24;;;;;;;21.05;13.52;;;;;;;;;;5076283;28;20036;-43
2021/06/30 00:12:50;;;;;;;24.63;13.40;;;;;;;;;;5076136;28;20265;-46
2021/06/30 00:15:20;;;;;;;43.35;23.48;;;;;;;;;;5076025;28;20056;-45
2021/06/30 00:17:47;;;;;;;42.53;25.55;;;;;;;;;;5076127;28;20032;-45
2021/06/30 00:20:13;;;;;;;41.15;27.67;;;;;;;;;;5076180;28;20039;-44
2021/06/30 00:22:40;;;;;;;35.05;19.45;;;;;;;;;;5075990;28;20027;-46
2021/06/30 00:25:06;;;;;;;28.25;17.35;;;;;;;;;;5076033;28;20029;-46
2021/06/30 00:27:32;;;;;;;20.40;10.38;;;;;;;;;;5075875;28;20069;-44
2021/06/30 00:29:58;;;;;;;20.10;9.98;;;;;;;;;;5075812;28;20049;-45
2021/06/30 00:32:25;;;;;;;15.07;8.13;;;;;;;;;;5075825;28;20031;-46
2021/06/30 00:34:51;;;;;;;17.13;8.10;;;;;;;;;;5075884;28;20029;-45
2021/06/30 00:37:17;;;;;;;13.68;7.20;;;;;;;;;;5075750;28;20028;-47
2021/06/30 00:39:43;;;;;;;13.43;7.85;;;;;;;;;;5075719;28;20035;-45
2021/06/30 00:42:10;;;;;;;14.75;7.25;;;;;;;;;;5075815;28;20092;-46
2021/06/30 00:44:36;;;;;;;15.70;8.30;;;;;;;;;;5075801;28;20538;-45
2021/06/30 00:47:03;;;;;;;17.17;8.43;;;;;;;;;;5075650;28;20040;-43
2021/06/30 00:49:29;;;;;;;15.23;8.98;;;;;;;;;;5075565;28;20064;-43
2021/06/30 00:51:55;;;;;;;30.85;13.82;;;;;;;;;;5075536;28;20100;-43
2021/06/30 00:54:21;;;;;;;22.27;14.02;;;;;;;;;;5075471;28;20035;-46
2021/06/30 00:56:47;;;;;;;19.42;10.00;;;;;;;;;;5075486;28;20020;-47
2021/06/30 00:59:13;;;;;;;25.38;13.05;;;;;;;;;;5075462;28;20025;-47
2021/06/30 01:01:40;;;;;;;20.13;10.48;;;;;;;;;;5075317;28;20059;-47
2021/06/30 01:04:07;;;;;;;18.35;11.60;;;;;;;;;;5075358;28;20157;-47
2021/06/30 01:06:33;;;;;;;49.63;11.20;;;;;;;;;;5075215;28;20469;-43
2021/06/30 01:09:04;;;;;;;18.40;8.90;;;;;;;;;;5074866;28;20043;-45
2021/06/30 01:11:30;;;;;;;18.73;8.93;;;;;;;;;;5075430;28;20036;-46
2021/06/30 01:13:57;;;;;;;20.23;9.43;;;;;;;;;;5073602;28;20457;-47
2021/06/30 01:16:23;;;;;;;23.27;9.77;;;;;;;;;;5075033;28;20025;-44
2021/06/30 01:18:49;;;;;;;23.85;11.35;;;;;;;;;;5074953;28;20388;-46
2021/06/30 01:21:15;;;;;;;21.75;12.77;;;;;;;;;;5075121;28;20082;-45
2021/06/30 01:23:42;;;;;;;23.77;14.40;;;;;;;;;;5074892;28;20043;-46
2021/06/30 01:26:08;;;;;;;29.65;16.83;;;;;;;;;;5075067;28;20024;-46
2021/06/30 01:28:35;;;;;;;34.20;18.42;;;;;;;;;;5074995;28;20385;-44
2021/06/30 01:31:02;;;;;;;36.67;20.73;;;;;;;;;;5075076;28;20059;-46
2021/06/30 01:33:28;;;;;;;30.27;16.98;;;;;;;;;;5074923;28;20040;-45
2021/06/30 01:35:55;;;;;;;31.38;15.45;;;;;;;;;;5074718;28;20032;-45
2021/06/30 01:38:22;;;;;;;19.65;13.32;;;;;;;;;;5074788;28;20024;-45
2021/06/30 01:40:49;;;;;;;23.30;11.98;;;;;;;;;;5074707;28;20043;-45
2021/06/30 01:43:15;;;;;;;29.58;10.88;;;;;;;;;;5074758;28;20024;-44
2021/06/30 01:45:41;;;;;;;23.90;12.00;;;;;;;;;;5074667;28;20115;-45
2021/06/30 01:48:07;;;;;;;15.57;10.13;;;;;;;;;;5074405;28;20013;-46
2021/06/30 01:50:33;;;;;;;16.30;8.35;;;;;;;;;;5074529;28;20032;-45
2021/06/30 01:52:59;;;;;;;18.73;7.90;;;;;;;;;;5074448;28;20027;-45
2021/06/30 01:55:25;;;;;;;19.00;9.45;;;;;;;;;;5074353;28;20032;-45
2021/06/30 01:57:52;;;;;;;12.52;7.78;;;;;;;;;;5073104;28;20066;-44
2021/06/30 02:00:19;;;;;;;14.48;8.32;;;;;;;;;;5074287;28;20576;-45
2021/06/30 02:02:46;;;;;;;14.10;7.78;;;;;;;;;;5074278;28;20028;-45
2021/06/30 02:05:20;;;;;;;14.07;8.13;;;;;;;;;;5074178;28;20070;-45
2021/06/30 02:07:47;;;;;;;20.85;8.35;;;;;;;;;;5074093;28;20020;-46
2021/06/30 02:10:14;;;;;;;14.07;8.55;;;;;;;;;;5074122;28;20032;-46
2021/06/30 02:12:40;;;;;;;11.52;8.18;;;;;;;;;;5074226;28;20484;-45
2021/06/30 02:15:08;;;;;;;16.27;8.50;;;;;;;;;;5073977;28;20504;-44
2021/06/30 02:17:34;;;;;;;11.80;8.32;;;;;;;;;;5073880;28;20025;-46
2021/06/30 02:20:00;;;;;;;18.70;8.07;;;;;;;;;;5073913;28;20036;-45
2021/06/30 02:22:27;;;;;;;15.60;8.35;;;;;;;;;;5074093;28;20021;-45
2021/06/30 02:24:56;;;;;;;13.65;8.15;;;;;;;;;;5073969;28;20070;-45
2021/06/30 02:27:22;;;;;;;15.57;8.30;;;;;;;;;;5073958;28;20021;-45
2021/06/30 02:29:48;;;;;;;14.63;8.52;;;;;;;;;;5073217;28;20044;-45
2021/06/30 02:32:14;;;;;;;18.48;9.27;;;;;;;;;;5073792;28;20063;-43
2021/06/30 02:34:41;;;;;;;16.90;8.75;;;;;;;;;;5074020;28;20024;-45
2021/06/30 02:37:07;;;;;;;18.27;8.75;;;;;;;;;;5073624;28;20103;-46
2021/06/30 02:39:33;;;;;;;13.23;8.30;;;;;;;;;;5073775;28;20484;-44
2021/06/30 02:41:59;;;;;;;19.25;9.68;;;;;;;;;;5073483;28;20037;-45
2021/06/30 02:44:25;;;;;;;13.05;9.00;;;;;;;;;;5073430;28;20032;-45
2021/06/30 02:46:51;;;;;;;21.92;9.40;;;;;;;;;;5073520;28;20025;-46
2021/06/30 02:49:17;;;;;;;13.85;9.30;;;;;;;;;;5073455;28;20032;-46
2021/06/30 02:51:43;;;;;;;15.15;8.40;;;;;;;;;;5073341;28;20453;-46
2021/06/30 02:54:09;;;;;;;13.02;9.23;;;;;;;;;;5073388;28;20025;-46
2021/06/30 02:56:38;;;;;;;17.17;9.27;;;;;;;;;;5073413;28;20461;-45
2021/06/30 02:59:04;;;;;;;19.17;8.60;;;;;;;;;;5073500;28;20028;-44
2021/06/30 03:01:30;;;;;;;14.90;8.48;;;;;;;;;;5073291;28;20024;-45
2021/06/30 03:03:56;;;;;;;17.48;8.43;;;;;;;;;;5073253;28;20020;-45
2021/06/30 03:06:22;;;;;;;14.18;8.05;;;;;;;;;;5073246;28;20016;-45
2021/06/30 03:08:50;;;;;;;15.07;9.25;;;;;;;;;;5073305;28;20081;-45
2021/06/30 03:11:16;;;;;;;15.25;9.63;;;;;;;;;;5073190;28;20081;-45
2021/06/30 03:13:42;;;;;;;16.42;8.88;;;;;;;;;;5073112;28;20113;-45
2021/06/30 03:16:08;;;;;;;15.30;9.52;;;;;;;;;;5073411;28;20033;-45
2021/06/30 03:18:34;;;;;;;17.02;9.25;;;;;;;;;;5073163;28;20028;-46
2021/06/30 03:21:00;;;;;;;21.00;9.15;;;;;;;;;;5073183;28;20024;-44
2021/06/30 03:23:27;;;;;;;18.00;9.35;;;;;;;;;;5072988;28;20027;-44
2021/06/30 03:25:53;;;;;;;16.23;9.00;;;;;;;;;;5073279;28;20028;-44
2021/06/30 03:28:19;;;;;;;21.50;8.80;;;;;;;;;;5073095;28;20060;-46
2021/06/30 03:30:45;;;;;;;15.23;8.30;;;;;;;;;;5072864;28;20037;-46
2021/06/30 03:33:11;;;;;;;24.90;13.77;;;;;;;;;;5073080;28;20447;-45
2021/06/30 03:35:37;;;;;;;23.40;12.00;;;;;;;;;;5073115;28;20024;-46
2021/06/30 03:38:04;;;;;;;22.05;11.38;;;;;;;;;;5072991;28;20045;-46
2021/06/30 03:40:32;;;;;;;21.15;10.35;;;;;;;;;;5073233;28;20028;-45
2021/06/30 03:42:58;;;;;;;17.25;9.18;;;;;;;;;;5077067;28;20012;-45
2021/06/30 03:45:24;;;;;;;17.80;8.77;;;;;;;;;;5076965;28;20124;-46
2021/06/30 03:47:50;;;;;;;18.25;8.68;;;;;;;;;;5076969;28;20444;-45
2021/06/30 03:50:16;;;;;;;18.90;8.00;;;;;;;;;;5076729;28;20037;-45
2021/06/30 03:52:43;;;;;;;18.35;8.90;;;;;;;;;;5076755;28;20435;-44
2021/06/30 03:55:09;;;;;;;16.52;8.45;;;;;;;;;;5076656;28;20024;-45
2021/06/30 03:57:35;;;;;;;22.70;7.93;;;;;;;;;;5076808;28;20029;-45
2021/06/30 04:00:02;;;;;;;15.05;7.28;;;;;;;;;;5076774;28;20029;-46
2021/06/30 04:02:28;;;;;;;14.65;8.00;;;;;;;;;;5076416;28;20036;-45
2021/06/30 04:04:54;;;;;;;20.38;7.28;;;;;;;;;;5076523;28;20025;-45
2021/06/30 04:07:20;;;;;;;15.60;7.53;;;;;;;;;;5076467;28;20024;-44
2021/06/30 04:09:46;;;;;;;15.07;7.72;;;;;;;;;;5075292;28;20446;-45
2021/06/30 04:12:12;;;;;;;22.02;7.45;;;;;;;;;;5076659;28;20024;-45
2021/06/30 04:14:38;;;;;;;15.80;7.03;;;;;;;;;;5076119;28;20049;-45
2021/06/30 04:17:04;;;;;;;15.02;6.72;;;;;;;;;;5076614;28;20029;-45
2021/06/30 04:19:30;;;;;;;16.67;7.10;;;;;;;;;;5076222;28;20118;-45
2021/06/30 04:21:56;;;;;;;15.70;6.63;;;;;;;;;;5076918;28;20032;-45
2021/06/30 04:24:22;;;;;;;17.25;6.78;;;;;;;;;;5076153;28;20373;-45
2021/06/30 04:26:48;;;;;;;22.05;8.00;;;;;;;;;;5076375;28;20024;-44
2021/06/30 04:29:15;;;;;;;14.55;6.75;;;;;;;;;;5076051;28;20089;-44
2021/06/30 04:31:41;;;;;;;19.52;8.60;;;;;;;;;;5076142;28;20111;-46
2021/06/30 04:34:07;;;;;;;96.38;10.80;;;;;;;;;;5075930;28;20020;-45
2021/06/30 04:36:33;;;;;;;17.67;7.38;;;;;;;;;;5075876;28;20396;-45
2021/06/30 04:38:59;;;;;;;16.52;7.63;;;;;;;;;;5075811;28;20027;-45
2021/06/30 04:41:25;;;;;;;19.02;7.07;;;;;;;;;;5076041;28;20123;-47
2021/06/30 04:43:51;;;;;;;12.40;6.80;;;;;;;;;;5075642;28;20059;-47
2021/06/30 04:46:17;;;;;;;13.77;6.60;;;;;;;;;;5075915;28;20154;-45
2021/06/30 04:48:43;;;;;;;17.55;6.55;;;;;;;;;;5074662;28;20026;-45
2021/06/30 04:51:10;;;;;;;19.55;7.05;;;;;;;;;;5075694;28;20025;-46
2021/06/30 04:53:36;;;;;;;18.35;5.40;;;;;;;;;;5075245;28;20025;-46
2021/06/30 04:56:02;;;;;;;13.85;5.45;;;;;;;;;;5075866;28;20156;-44
2021/06/30 04:58:29;;;;;;;20.42;6.13;;;;;;;;;;5075750;28;20020;-45
2021/06/30 05:00:55;;;;;;;18.92;5.60;;;;;;;;;;5075710;28;20027;-44
2021/06/30 05:03:29;;;;;;;14.73;5.38;;;;;;;;;;5075431;28;20025;-46
2021/06/30 05:05:56;;;;;;;7.95;5.18;;;;;;;;;;5075429;28;20028;-45
2021/06/30 05:08:22;;;;;;;15.40;4.88;;;;;;;;;;5075312;28;20024;-44
2021/06/30 05:10:48;;;;;;;10.48;4.53;;;;;;;;;;5075454;28;20082;-43
2021/06/30 05:13:15;;;;;;;15.65;4.18;;;;;;;;;;5075225;28;20484;-44
2021/06/30 05:15:41;;;;;;;13.25;4.30;;;;;;;;;;5075150;28;20052;-44
2021/06/30 05:18:07;;;;;;;14.30;4.13;;;;;;;;;;5075149;28;20078;-46
2021/06/30 05:20:33;;;;;;;16.77;4.93;;;;;;;;;;5075164;28;20036;-46
2021/06/30 05:22:59;;;;;;;15.02;4.30;;;;;;;;;;5075080;28;20496;-46
2021/06/30 05:25:26;;;;;;;13.05;4.15;;;;;;;;;;5075124;28;20032;-44
2021/06/30 05:27:52;;;;;;;11.95;4.13;;;;;;;;;;5075246;28;20376;-45
2021/06/30 05:30:18;;;;;;;10.13;3.50;;;;;;;;;;5075032;28;20480;-44
2021/06/30 05:32:44;;;;;;;9.27;3.38;;;;;;;;;;5074703;28;20358;-45
2021/06/30 05:35:10;;;;;;;10.25;3.50;;;;;;;;;;5074723;28;20030;-45
2021/06/30 05:37:38;;;;;;;11.93;4.00;;;;;;;;;;5074807;28;20028;-43
2021/06/30 05:40:04;;;;;;;13.95;3.95;;;;;;;;;;5074717;28;20032;-46
2021/06/30 05:42:30;;;;;;;12.07;4.20;;;;;;;;;;5074627;28;20070;-43
2021/06/30 05:44:56;;;;;;;11.77;3.88;;;;;;;;;;5074580;28;20476;-43
2021/06/30 05:47:22;;;;;;;10.43;3.67;;;;;;;;;;5074755;28;20350;-44
2021/06/30 05:49:49;;;;;;;14.32;4.30;;;;;;;;;;5074428;28;20036;-45
2021/06/30 05:52:15;;;;;;;18.77;4.50;;;;;;;;;;5074609;28;20067;-46
2021/06/30 05:54:41;;;;;;;9.35;4.10;;;;;;;;;;5074386;28;20078;-46
2021/06/30 05:57:07;;;;;;;18.15;4.35;;;;;;;;;;5074602;28;20066;-46
2021/06/30 05:59:33;;;;;;;81.03;56.22;;;;;;;;;;5074522;28;20021;-46
2021/06/30 06:01:59;;;;;;;114.40;76.35;;;;;;;;;;5074470;28;20476;-46
2021/06/30 06:04:25;;;;;;;46.17;26.60;;;;;;;;;;5073427;28;20039;-46
2021/06/30 06:06:51;;;;;;;28.88;15.13;;;;;;;;;;5074301;28;20137;-46
2021/06/30 06:09:17;;;;;;;20.63;8.90;;;;;;;;;;5074105;28;20116;-42
2021/06/30 06:11:43;;;;;;;13.40;4.57;;;;;;;;;;5074409;28;20024;-42
2021/06/30 06:14:09;;;;;;;15.20;4.95;;;;;;;;;;5073972;28;20123;-43
2021/06/30 06:16:36;;;;;;;10.93;3.50;;;;;;;;;;5074004;28;20035;-43
2021/06/30 06:19:02;;;;;;;13.85;3.67;;;;;;;;;;5074055;28;20055;-42
2021/06/30 06:21:28;;;;;;;10.02;3.30;;;;;;;;;;5074068;28;20108;-42
2021/06/30 06:23:54;;;;;;;13.20;3.38;;;;;;;;;;5073885;28;20078;-42
2021/06/30 06:26:21;;;;;;;15.57;4.10;;;;;;;;;;5073898;28;20107;-42
2021/06/30 06:28:48;;;;;;;12.65;3.13;;;;;;;;;;5073831;28;20092;-43
2021/06/30 06:31:16;;;;;;;11.25;3.45;;;;;;;;;;5073990;28;20028;-42
2021/06/30 06:33:42;;;;;;;11.25;3.60;;;;;;;;;;5073759;28;20021;-42
2021/06/30 06:36:09;;;;;;;15.50;4.03;;;;;;;;;;5073739;28;20024;-42
2021/06/30 06:38:38;;;;;;;13.07;3.90;;;;;;;;;;5073617;28;20051;-42
2021/06/30 06:41:04;;;;;;;15.95;3.80;;;;;;;;;;5073754;28;20069;-42
2021/06/30 06:43:32;;;;;;;14.00;4.20;;;;;;;;;;5072295;28;20031;-42
2021/06/30 06:45:58;;;;;;;15.45;4.55;;;;;;;;;;5073595;28;20043;-42
2021/06/30 06:48:24;;;;;;;11.95;3.55;;;;;;;;;;5073585;28;20075;-42
2021/06/30 06:50:50;;;;;;;12.15;3.58;;;;;;;;;;5073542;28;20037;-42
2021/06/30 06:53:16;;;;;;;10.82;3.47;;;;;;;;;;5073526;28;20029;-41
2021/06/30 06:55:42;;;;;;;10.45;3.30;;;;;;;;;;5073502;28;20095;-42
2021/06/30 06:58:08;;;;;;;12.57;4.43;;;;;;;;;;5073216;28;20027;-42
2021/06/30 07:00:35;;;;;;;13.75;3.85;;;;;;;;;;5073522;28;20032;-41
2021/06/30 07:03:01;;;;;;;14.23;3.67;;;;;;;;;;5073409;28;20145;-41
2021/06/30 07:05:27;;;;;;;22.20;4.05;;;;;;;;;;5073356;28;20024;-42
2021/06/30 07:07:53;;;;;;;12.88;3.97;;;;;;;;;;5073357;28;20021;-42
2021/06/30 07:10:20;;;;;;;16.95;4.05;;;;;;;;;;5073290;28;20461;-42
2021/06/30 07:12:46;;;;;;;13.90;3.83;;;;;;;;;;5073397;28;20044;-42
2021/06/30 07:15:12;;;;;;;9.90;3.67;;;;;;;;;;5072880;28;20068;-42
2021/06/30 07:17:39;;;;;;;13.27;4.60;;;;;;;;;;5073131;28;20025;-42
2021/06/30 07:20:05;;;;;;;10.40;3.47;;;;;;;;;;5073347;28;20392;-42
2021/06/30 07:22:31;;;;;;;15.10;4.00;;;;;;;;;;5073247;28;20024;-42
2021/06/30 07:24:57;;;;;;;11.73;3.75;;;;;;;;;;5073087;28;20050;-42
2021/06/30 07:27:24;;;;;;;20.83;4.72;;;;;;;;;;5073109;28;20090;-42
2021/06/30 07:29:50;;;;;;;32.90;6.82;;;;;;;;;;5073057;28;20039;-42
2021/06/30 07:32:18;;;;;;;26.75;4.22;;;;;;;;;;5073145;28;20120;-42
2021/06/30 07:34:44;;;;;;;18.17;7.60;;;;;;;;;;5072993;28;20020;-42
2021/06/30 07:37:10;;;;;;;25.52;5.00;;;;;;;;;;5073248;28;20025;-42
2021/06/30 07:39:36;;;;;;;189.00;17.13;;;;;;;;;;5072918;28;20032;-42
2021/06/30 07:42:02;;;;;;;30.23;5.53;;;;;;;;;;5073210;28;20021;-42
2021/06/30 07:44:29;;;;;;;119.88;12.10;;;;;;;;;;5072892;28;20024;-42
2021/06/30 07:46:55;;;;;;;17.25;4.57;;;;;;;;;;5073149;28;20032;-41
2021/06/30 07:49:21;;;;;;;51.05;7.50;;;;;;;;;;5072927;28;20046;-42
2021/06/30 07:51:47;;;;;;;13.45;3.65;;;;;;;;;;5073011;28;20028;-41
2021/06/30 07:54:13;;;;;;;14.35;3.90;;;;;;;;;;5072763;28;20373;-41
2021/06/30 07:56:39;;;;;;;20.70;4.07;;;;;;;;;;5072858;28;20158;-41
2021/06/30 07:59:10;;;;;;;11.82;3.80;;;;;;;;;;5072942;28;20476;-41
2021/06/30 08:01:36;;;;;;;19.52;4.30;;;;;;;;;;5073107;28;20028;-42
2021/06/30 08:04:03;;;;;;;12.32;4.30;;;;;;;;;;5073095;28;20021;-42
2021/06/30 08:06:29;;;;;;;14.38;3.92;;;;;;;;;;5072753;28;20024;-41
2021/06/30 08:08:56;;;;;;;17.45;4.13;;;;;;;;;;5072496;28;20036;-42
2021/06/30 08:11:23;;;;;;;12.48;3.40;;;;;;;;;;5072586;28;20028;-41
2021/06/30 08:13:50;;;;;;;25.45;4.75;;;;;;;;;;5072432;28;20083;-42
2021/06/30 08:16:17;;;;;;;13.00;3.55;;;;;;;;;;5071434;28;20028;-42
2021/06/30 08:18:43;;;;;;;12.05;3.50;;;;;;;;;;5072529;28;20059;-42
2021/06/30 08:21:09;;;;;;;12.98;3.60;;;;;;;;;;5072651;28;20031;-41
2021/06/30 08:23:35;;;;;;;6.65;3.13;;;;;;;;;;5071413;28;20028;-41
2021/06/30 08:26:01;;;;;;;10.32;3.45;;;;;;;;;;5052789;28;20025;-41
2021/06/30 08:28:28;;;;;;;12.98;3.60;;;;;;;;;;5055510;28;20049;-41
2021/06/30 08:30:54;;;;;;;11.50;3.45;;;;;;;;;;5056011;28;20040;-41
2021/06/30 08:33:20;;;;;;;11.93;3.30;;;;;;;;;;5055873;28;20477;-42
2021/06/30 08:35:46;;;;;;;12.73;3.78;;;;;;;;;;5055853;28;20473;-42
2021/06/30 08:38:13;;;;;;;16.83;3.60;;;;;;;;;;5055962;28;20036;-42
2021/06/30 08:40:39;;;;;;;17.40;3.30;;;;;;;;;;5055821;28;20100;-41
2021/06/30 08:43:07;;;;;;;12.35;3.35;;;;;;;;;;5055625;28;20156;-41
2021/06/30 08:45:33;;;;;;;11.60;3.10;;;;;;;;;;5055911;28;20025;-41
2021/06/30 08:47:59;;;;;;;12.13;3.38;;;;;;;;;;5055704;28;20032;-41
2021/06/30 08:50:25;;;;;;;11.50;2.80;;;;;;;;;;5055437;28;20044;-43
2021/06/30 08:52:52;;;;;;;12.07;3.50;;;;;;;;;;5055500;28;20048;-43
2021/06/30 08:55:18;;;;;;;15.85;3.33;;;;;;;;;;5068895;28;20055;-42
2021/06/30 08:57:45;;;;;;;12.45;4.15;;;;;;;;;;5073950;28;20103;-42
2021/06/30 09:00:12;;;;;;;16.95;6.13;;;;;;;;;;5075734;28;20024;-43
2021/06/30 09:02:38;;;;;;;13.75;5.05;;;;;;;;;;5075493;28;20017;-43
2021/06/30 09:05:14;;;;;;;18.52;7.45;;;;;;;;;;5075300;28;20028;-42
2021/06/30 09:07:40;;;;;;;19.77;4.25;;;;;;;;;;5075062;28;20053;-43
2021/06/30 09:10:07;;;;;;;10.65;3.00;;;;;;;;;;5075034;28;20033;-43
2021/06/30 09:12:40;;;;;;;13.18;4.00;;;;;;;;;;5075297;28;20031;-42
2021/06/30 09:15:16;;;;;;;10.73;3.25;;;;;;;;;;5075219;28;20052;-43
2021/06/30 09:17:43;;;;;;;15.55;3.30;;;;;;;;;;5075165;28;20059;-43
2021/06/30 09:20:10;;;;;;;25.02;11.57;;;;;;;;;;5074974;28;20024;-43
2021/06/30 09:23:05;;;;;;;126.93;72.00;;;;;;;;;;5073832;28;20085;-41
2021/06/30 09:25:33;;;;;;;16.38;7.90;;;;;;;;;;5072111;28;20040;-43
2021/06/30 09:27:59;;;;;;;11.73;3.53;;;;;;;;;;5072796;28;20032;-44
2021/06/30 09:30:25;;;;;;;15.65;2.92;;;;;;;;;;5072611;28;20048;-43
2021/06/30 09:32:54;;;;;;;26.88;15.25;;;;;;;;;;5072554;28;20073;-43
2021/06/30 09:35:21;;;;;;;19.70;7.60;;;;;;;;;;5072546;28;20033;-43
2021/06/30 09:37:48;;;;;;;20.65;10.75;;;;;;;;;;5072470;28;20388;-43
2021/06/30 09:40:17;;;;;;;34.05;17.98;;;;;;;;;;5072504;28;20028;-44
2021/06/30 09:42:44;;;;;;;21.23;10.57;;;;;;;;;;5072324;28;20036;-42
2021/06/30 09:45:19;;;;;;;14.65;4.13;;;;;;;;;;5072417;28;20037;-43
2021/06/30 09:47:50;;;;;;;44.97;25.67;;;;;;;;;;5072358;28;20029;-43
2021/06/30 09:50:16;;;;;;;36.17;19.92;;;;;;;;;;5072438;28;20068;-44
2021/06/30 09:52:43;;;;;;;26.23;14.40;;;;;;;;;;5072312;28;20032;-43
2021/06/30 09:55:29;;;;;;;13.02;4.65;;;;;;;;;;5071780;28;20118;-43
2021/06/30 09:57:56;;;;;;;11.15;3.20;;;;;;;;;;5071999;28;20025;-43
2021/06/30 10:00:24;;;;;;;10.50;2.90;;;;;;;;;;5072097;28;20039;-42
2021/06/30 10:02:50;;;;;;;12.27;2.92;;;;;;;;;;5073842;28;20029;-43
2021/06/30 10:05:27;;;;;;;9.82;2.78;;;;;;;;;;5072891;28;20469;-44
2021/06/30 10:07:57;;;;;;;21.17;13.00;;;;;;;;;;5074589;28;20048;-42
2021/06/30 10:10:25;;;;;;;20.83;5.45;;;;;;;;;;5074031;28;20079;-43
2021/06/30 10:12:51;;;;;;;13.57;4.00;;;;;;;;;;5073938;28;20028;-43
2021/06/30 10:15:18;;;;;;;25.00;10.52;;;;;;;;;;5073640;28;20447;-44
2021/06/30 10:17:44;;;;;;;13.07;2.92;;;;;;;;;;5074079;28;20022;-42
2021/06/30 10:20:10;;;;;;;30.20;13.57;;;;;;;;;;5074013;28;20517;-42
2021/06/30 10:22:36;;;;;;;20.33;3.53;;;;;;;;;;5073888;28;20145;-44
2021/06/30 10:25:04;;;;;;;17.23;4.47;;;;;;;;;;5073341;28;20030;-43
2021/06/30 10:27:30;;;;;;;18.77;10.65;;;;;;;;;;5073685;28;20017;-42
2021/06/30 10:29:57;;;;;;;135.95;71.32;;;;;;;;;;5073913;28;20156;-43
2021/06/30 10:32:24;;;;;;;98.25;62.10;;;;;;;;;;5074014;28;20059;-44
2021/06/30 10:34:54;;;;;;;122.68;69.28;;;;;;;;;;5072180;28;20495;-41
2021/06/30 10:37:30;;;;;;;24.80;14.07;;;;;;;;;;5073665;28;20495;-42
2021/06/30 10:40:15;;;;;;;16.77;5.47;;;;;;;;;;5073689;28;20460;-41
2021/06/30 10:42:42;;;;;;;26.73;12.48;;;;;;;;;;5073494;28;20020;-42
2021/06/30 10:45:14;;;;;;;26.00;13.25;;;;;;;;;;5073658;28;20495;-42
2021/06/30 10:47:45;;;;;;;41.30;23.10;;;;;;;;;;5073557;28;20051;-42
2021/06/30 10:50:22;;;;;;;13.27;7.53;;;;;;;;;;5072655;28;20036;-43
2021/06/30 10:52:49;;;;;;;15.95;6.88;;;;;;;;;;5073267;28;20471;-43
2021/06/30 10:55:35;;;;;;;21.05;4.47;;;;;;;;;;5072891;28;20039;-41
2021/06/30 10:58:14;;;;;;;12.60;2.92;;;;;;;;;;5073273;28;20376;-43
2021/06/30 11:00:40;;;;;;;125.10;97.78;;;;;;;;;;5073286;28;20024;-44
2021/06/30 11:03:25;;;;;;;20.77;6.85;;;;;;;;;;5073356;28;20020;-44
2021/06/30 11:05:52;;;;;;;13.93;3.13;;;;;;;;;;5073151;28;20487;-43
2021/06/30 11:08:36;;;;;;;53.47;29.98;;;;;;;;;;5073263;28;20025;-43
2021/06/30 11:11:02;;;;;;;31.75;19.02;;;;;;;;;;5073040;28;20039;-43
2021/06/30 11:13:47;;;;;;;17.15;6.95;;;;;;;;;;5072753;28;20430;-43
2021/06/30 11:16:33;;;;;;;18.67;8.07;;;;;;;;;;5073052;28;20041;-43
2021/06/30 11:18:59;;;;;;;46.20;21.77;;;;;;;;;;5073206;28;20137;-42
2021/06/30 11:21:44;;;;;;;14.75;5.30;;;;;;;;;;5072994;28;20531;-43
2021/06/30 11:24:29;;;;;;;13.20;3.47;;;;;;;;;;5072563;28;20039;-42
2021/06/30 11:26:55;;;;;;;14.23;2.50;;;;;;;;;;5073258;28;20034;-42
2021/06/30 11:29:39;;;;;;;13.85;3.55;;;;;;;;;;5073018;28;20035;-42
2021/06/30 11:32:06;;;;;;;12.98;5.43;;;;;;;;;;5073082;28;20033;-41
2021/06/30 11:34:36;;;;;;;22.13;4.35;;;;;;;;;;5072775;28;20029;-42
2021/06/30 11:37:02;;;;;;;13.48;4.15;;;;;;;;;;5072754;28;20028;-42
2021/06/30 11:39:30;;;;;;;14.05;3.35;;;;;;;;;;5072890;28;20082;-42
2021/06/30 11:41:56;;;;;;;16.02;2.65;;;;;;;;;;5073030;28;20032;-41
2021/06/30 11:44:33;;;;;;;14.13;3.33;;;;;;;;;;5072917;28;20361;-43
2021/06/30 11:47:04;;;;;;;12.57;2.63;;;;;;;;;;5072785;28;20033;-42
2021/06/30 11:49:30;;;;;;;14.30;3.65;;;;;;;;;;5072726;28;20056;-42
2021/06/30 11:52:03;;;;;;;13.75;4.05;;;;;;;;;;5072725;28;20028;-42
2021/06/30 11:54:29;;;;;;;16.13;5.70;;;;;;;;;;5072204;28;20025;-42
2021/06/30 11:56:56;;;;;;;13.05;3.90;;;;;;;;;;5072698;28;20499;-42
2021/06/30 11:59:23;;;;;;;14.93;3.25;;;;;;;;;;5072766;28;20112;-42
2021/06/30 12:01:50;;;;;;;15.05;3.25;;;;;;;;;;5073247;28;20525;-42
2021/06/30 12:04:18;;;;;;;14.50;3.03;;;;;;;;;;5076546;28;20380;-42
2021/06/30 12:06:45;;;;;;;11.48;2.60;;;;;;;;;;5076313;28;20543;-42
2021/06/30 12:09:11;;;;;;;12.73;2.95;;;;;;;;;;5076296;28;20032;-42
2021/06/30 12:11:39;;;;;;;9.40;2.60;;;;;;;;;;5076397;28;20024;-42
2021/06/30 12:14:09;;;;;;;17.60;2.97;;;;;;;;;;5076027;28;20048;-43
2021/06/30 12:16:39;;;;;;;11.57;3.03;;;;;;;;;;5076277;28;20056;-41
2021/06/30 12:19:05;;;;;;;;;;;;;;;;;;5076824;28;20048;-43
2021/06/30 12:21:35;;;;;;;16.00;7.65;;;;;;;;;;5076113;28;19912;-42
2021/06/30 12:24:01;;;;;;;18.98;3.63;;;;;;;;;;5076163;28;20028;-42
2021/06/30 12:26:28;;;;;;;12.00;3.38;;;;;;;;;;5074455;28;20070;-42
2021/06/30 12:28:54;;;;;;;15.57;3.40;;;;;;;;;;5076695;28;20033;-42
2021/06/30 12:31:20;;;;;;;17.48;2.90;;;;;;;;;;5075874;28;20035;-43
2021/06/30 12:33:46;;;;;;;12.38;3.15;;;;;;;;;;5074572;28;20087;-41
2021/06/30 12:36:13;;;;;;;12.15;2.75;;;;;;;;;;5075791;28;20036;-43
2021/06/30 12:38:39;;;;;;;14.98;3.58;;;;;;;;;;5075904;28;20020;-43
2021/06/30 12:41:09;;;;;;;17.45;3.35;;;;;;;;;;5075852;28;20099;-42
2021/06/30 12:43:35;;;;;;;12.88;6.07;;;;;;;;;;5076066;28;20112;-42
2021/06/30 12:46:02;;;;;;;16.02;4.78;;;;;;;;;;5075851;28;20036;-43
2021/06/30 12:48:35;;;;;;;37.35;18.63;;;;;;;;;;5075470;28;20035;-41
2021/06/30 12:51:12;;;;;;;18.30;5.10;;;;;;;;;;5075697;28;20033;-43
2021/06/30 12:53:43;;;;;;;9.45;3.17;;;;;;;;;;5074253;28;20395;-42
2021/06/30 12:56:13;;;;;;;14.05;2.97;;;;;;;;;;5075203;28;20032;-42
2021/06/30 12:58:39;;;;;;;19.63;4.28;;;;;;;;;;5075483;28;20016;-41
2021/06/30 13:01:06;;;;;;;18.48;7.95;;;;;;;;;;5075496;28;20156;-42
2021/06/30 13:03:42;;;;;;;11.70;3.25;;;;;;;;;;5075395;28;20484;-42
2021/06/30 13:06:18;;;;;;;11.80;4.43;;;;;;;;;;5075168;28;20464;-42
2021/06/30 13:08:46;;;;;;;23.92;11.75;;;;;;;;;;5075495;28;20032;-41
2021/06/30 13:11:18;;;;;;;16.50;4.72;;;;;;;;;;5075195;28;20029;-42
2021/06/30 13:14:14;;;;;;;11.02;3.13;;;;;;;;;;5074690;28;20460;-42
2021/06/30 13:16:48;;;;;;;28.35;15.05;;;;;;;;;;5053014;28;20045;-43
2021/06/30 13:19:21;;;;;;;18.63;5.95;;;;;;;;;;5053067;28;20032;-43
2021/06/30 13:21:57;;;;;;;15.00;4.93;;;;;;;;;;5052830;28;20505;-42
2021/06/30 13:24:28;;;;;;;24.10;11.00;;;;;;;;;;5052766;28;20040;-42
2021/06/30 13:35:20;;;;;;;17.67;3.58;;;;;;;;;;5052866;28;20099;-43
2021/06/30 13:37:57;;;;;;;17.42;5.25;;;;;;;;;;5052545;28;20068;-42
2021/06/30 13:40:23;;;;;;;13.10;4.15;;;;;;;;;;5051077;28;20086;-42
2021/06/30 13:42:50;;;;;;;13.48;4.28;;;;;;;;;;5052359;28;20166;-42
2021/06/30 13:45:16;;;;;;;26.88;8.63;;;;;;;;;;5052458;28;20032;-42
2021/06/30 13:47:43;;;;;;;16.83;6.40;;;;;;;;;;5049242;28;20090;-42
2021/06/30 13:50:10;;;;;;;8.10;3.42;;;;;;;;;;5052268;28;20033;-41
2021/06/30 13:52:36;;;;;;;17.00;6.45;;;;;;;;;;5059018;28;20059;-42
2021/06/30 13:55:04;;;;;;;16.85;5.40;;;;;;;;;;5074371;28;20027;-41
2021/06/30 13:57:30;;;;;;;20.52;5.85;;;;;;;;;;5074156;28;20396;-42
2021/06/30 13:59:56;;;;;;;25.58;11.13;;;;;;;;;;5052918;28;20102;-41
2021/06/30 14:02:23;;;;;;;27.23;11.25;;;;;;;;;;5027164;28;20028;-41
2021/06/30 14:04:49;;;;;;;14.95;6.57;;;;;;;;;;5027421;28;20040;-40
2021/06/30 14:07:15;;;;;;;16.92;3.17;;;;;;;;;;5027104;28;20025;-41
2021/06/30 14:09:41;;;;;;;17.27;4.40;;;;;;;;;;5027017;28;20028;-41
2021/06/30 14:12:08;;;;;;;20.52;7.57;;;;;;;;;;5026798;28;20033;-41
2021/06/30 14:14:35;;;;;;;14.18;5.38;;;;;;;;;;5026773;28;20137;-43
2021/06/30 14:17:01;;;;;;;14.48;4.32;;;;;;;;;;5027021;28;20756;-42
2021/06/30 14:19:27;;;;;;;79.43;43.17;;;;;;;;;;5027127;28;20132;-40
2021/06/30 14:21:53;;;;;;;575.55;404.23;;;;;;;;;;5026860;28;20048;-42
2021/06/30 14:24:19;;;;;;;449.40;335.85;;;;;;;;;;5026411;28;20010;-40
2021/06/30 14:26:45;;;;;;;127.45;84.07;;;;;;;;;;5027016;28;20106;-41
2021/06/30 14:29:12;;;;;;;188.73;135.63;;;;;;;;;;5026615;28;20029;-41
2021/06/30 14:31:38;;;;;;;137.13;93.32;;;;;;;;;;5026625;28;20029;-41
2021/06/30 14:34:08;;;;;;;71.38;32.65;;;;;;;;;;5027028;28;20040;-44
2021/06/30 14:36:34;;;;;;;43.57;21.23;;;;;;;;;;5026826;28;20051;-40